Airfield :
LOGIN :

Register | Disclaimer

   EN    FR    IT 

 










Legend :    VFR   Marginal VFR   IFR   Intensive IFR   Very Intensive IFR
Visi :
Ceiling :
>= 8 km
>= 3000ft
5 to 8 km
1000 to 3000 ft
1500m to 5 km
500 to 1000 ft
800 to 1500m
200 to 500 ft
< 800m
< 200 ft
Symbols :   Thunderstorms  Fog  Heavy snow  Heavy precipitations  Wind > 20 kt
SIGMETs :     Misc.  Thunderstorms  Icing  Turbulence  Mountain Waves  Volcanic Ashes







- Airport Elevation : 1363 ft


ETIC - Grafenwohr Army Air Field

CURRENT METAR :
  • 101656Z AUTO 28005KT 9999 FEW110 01/01 A3001 RMK AO2 SNE16RAB16E21 SLP183 P0000 T00080008 $

EXPIRED METARs :
  • 101636Z AUTO 28004KT 9999 SCT005 BKN027 BKN110 01/01 A3001 RMK AO2 SNE16RAB16E21 CIG 006V027 SLP183 $
  • 101621Z AUTO 29007KT 9999 BKN006 OVC028 01/01 A3001 RMK AO2 SNE16RAB16E21 CIG 004V006 SLP183 $
  • 101556Z AUTO 27005KT 9999 -SN BKN005 OVC014 01/01 A3002 RMK AO2 RAB06E36UPB36E37SNB37E43UPB43E44RAB44E53SNB53 SLP187 P0000 T00100009 $
  • 101541Z AUTO 27006KT 9999 -SN SCT005 OVC027 01/01 A3002 RMK AO2 RAB06E36UPB36E37SNB37 SLP187 $
  • 101526Z AUTO 25009KT 9999 -RA FEW006 BKN031 BKN049 OVC070 03/01 A3001 RMK AO2 RAB06 SLP181 $
  • 101506Z AUTO 26009KT 9999 -RA FEW027 BKN048 BKN070 03/00 A3001 RMK AO2 RAB06 SLP181 $
  • 101456Z AUTO 26007KT 9999 SCT027 SCT033 OVC047 03/00 A3001 RMK AO2 RAB14E29 SLP181 P0000 60000 T00300004 55000 $
  • 101444Z AUTO 25008KT 9999 SCT023 BKN029 BKN046 OVC055 03/00 A3001 RMK AO2 RAB14E29 SLP181 $
  • 101429Z AUTO 26007KT 9999 FEW021 SCT027 BKN033 OVC055 03/01 A3001 RMK AO2 RAB14E29 SLP181 $
  • 101414Z AUTO 26009KT 9999 -RA FEW020 SCT028 BKN037 BKN055 03/00 A3000 RMK AO2 RAB14 SLP178 $
  • 101411Z AUTO 25008KT 9999 FEW022 SCT028 SCT038 OVC055 03/00 A3000 RMK AO2 SLP178 $

TAF TAF ETIC
Valid from the 10 at 12:00 until the 11 at 18:00 UTC


101200Z 1012/1118 26010G15KT 9999 SCT015 BKN025 620258 510002 QNH2998INS
TEMPO 1012/1016 27015G20KT 6000 -SHRASN BKN010
BECMG 1015/1016 30015G25KT 8000 -SHRASN BKN010 OVC020 610208 510002 QNH3004INS
BECMG 1111/1112 30010G15KT 9999 NSW SCT005 BKN010 OVC020 620158 QNH3010INS TX04/1012Z TN01/1104Z
No reported NOTAMs for that airfield.



MET'MAP, your aeronautical weather chart ! - Copyright ORBIFLY December 2007 - Disclaimer

ORBIFLY MET'MAP TEAM :

Programming & Development : Alexandra Zaïnal
Concept & Development : Baudouin d'Aumeries
Co-Development & Prog : Marc-Olivier Méhu
Technical & hardware support : Manuel Goepfert

Contact : metmap@orbifly.com




SOURCES & CREDITS :

   NOAA